sensor_id;sensor_type;location;lat;lon;timestamp;temperature;humidity
35920;DHT22;36160;53.370;-6.196;2022-12-10T00:01:06;0.10;99.90
35920;DHT22;36160;53.370;-6.196;2022-12-10T00:03:32;0.00;99.90
35920;DHT22;36160;53.370;-6.196;2022-12-10T00:06:03;0.30;99.90
35920;DHT22;36160;53.370;-6.196;2022-12-10T00:08:29;0.10;99.90
35920;DHT22;36160;53.370;-6.196;2022-12-10T00:10:55;0.10;99.90
35920;DHT22;36160;53.370;-6.196;2022-12-10T00:13:21;-0.10;99.90
35920;DHT22;36160;53.370;-6.196;2022-12-10T00:15:47;0.20;99.90
35920;DHT22;36160;53.370;-6.196;2022-12-10T00:18:12;0.20;99.90
35920;DHT22;36160;53.370;-6.196;2022-12-10T00:20:38;0.10;99.90
35920;DHT22;36160;53.370;-6.196;2022-12-10T00:23:04;0.10;99.90
35920;DHT22;36160;53.370;-6.196;2022-12-10T00:25:31;-0.10;99.90
35920;DHT22;36160;53.370;-6.196;2022-12-10T00:27:57;0.00;99.90
35920;DHT22;36160;53.370;-6.196;2022-12-10T00:30:22;0.00;99.90
35920;DHT22;36160;53.370;-6.196;2022-12-10T00:32:48;0.10;99.90
35920;DHT22;36160;53.370;-6.196;2022-12-10T00:35:14;-0.10;99.90
35920;DHT22;36160;53.370;-6.196;2022-12-10T00:37:39;0.00;99.90
35920;DHT22;36160;53.370;-6.196;2022-12-10T00:40:05;0.20;99.90
35920;DHT22;36160;53.370;-6.196;2022-12-10T00:42:31;0.00;99.90
35920;DHT22;36160;53.370;-6.196;2022-12-10T00:44:57;0.10;99.90
35920;DHT22;36160;53.370;-6.196;2022-12-10T00:47:23;0.10;99.90
35920;DHT22;36160;53.370;-6.196;2022-12-10T00:49:48;0.30;99.90
35920;DHT22;36160;53.370;-6.196;2022-12-10T00:52:14;0.40;99.90
35920;DHT22;36160;53.370;-6.196;2022-12-10T00:54:40;0.20;99.90
35920;DHT22;36160;53.370;-6.196;2022-12-10T00:57:06;0.40;99.90
35920;DHT22;36160;53.370;-6.196;2022-12-10T00:59:32;0.50;99.90
35920;DHT22;36160;53.370;-6.196;2022-12-10T01:01:57;0.40;99.90
35920;DHT22;36160;53.370;-6.196;2022-12-10T01:04:23;0.40;99.90
35920;DHT22;36160;53.370;-6.196;2022-12-10T01:06:50;0.50;99.90
35920;DHT22;36160;53.370;-6.196;2022-12-10T01:09:23;0.60;99.90
35920;DHT22;36160;53.370;-6.196;2022-12-10T01:11:49;0.60;99.90
35920;DHT22;36160;53.370;-6.196;2022-12-10T01:14:19;0.60;99.90
35920;DHT22;36160;53.370;-6.196;2022-12-10T01:16:45;0.40;99.90
35920;DHT22;36160;53.370;-6.196;2022-12-10T01:19:12;0.60;99.90
35920;DHT22;36160;53.370;-6.196;2022-12-10T01:21:38;0.40;99.90
35920;DHT22;36160;53.370;-6.196;2022-12-10T01:24:04;0.60;99.90
35920;DHT22;36160;53.370;-6.196;2022-12-10T01:26:32;0.40;99.90
35920;DHT22;36160;53.370;-6.196;2022-12-10T01:28:59;0.50;99.90
35920;DHT22;36160;53.370;-6.196;2022-12-10T01:31:35;0.50;99.90
35920;DHT22;36160;53.370;-6.196;2022-12-10T01:34:03;0.50;99.90
35920;DHT22;36160;53.370;-6.196;2022-12-10T01:36:32;0.60;99.90
35920;DHT22;36160;53.370;-6.196;2022-12-10T01:38:59;0.70;99.90
35920;DHT22;36160;53.370;-6.196;2022-12-10T01:41:35;0.70;99.90
35920;DHT22;36160;53.370;-6.196;2022-12-10T01:46:29;0.70;99.90
35920;DHT22;36160;53.370;-6.196;2022-12-10T01:48:57;0.70;99.90
35920;DHT22;36160;53.370;-6.196;2022-12-10T01:51:25;0.70;99.90
35920;DHT22;36160;53.370;-6.196;2022-12-10T01:53:52;0.70;99.90
35920;DHT22;36160;53.370;-6.196;2022-12-10T01:56:19;0.70;99.90
35920;DHT22;36160;53.370;-6.196;2022-12-10T01:58:46;0.70;99.90
35920;DHT22;36160;53.370;-6.196;2022-12-10T02:07:07;0.60;99.90
35920;DHT22;36160;53.370;-6.196;2022-12-10T02:09:39;0.50;99.90
35920;DHT22;36160;53.370;-6.196;2022-12-10T02:14:58;0.40;99.90
35920;DHT22;36160;53.370;-6.196;2022-12-10T02:22:39;0.60;99.90
35920;DHT22;36160;53.370;-6.196;2022-12-10T02:25:07;0.30;99.90
35920;DHT22;36160;53.370;-6.196;2022-12-10T02:27:48;0.50;99.90
35920;DHT22;36160;53.370;-6.196;2022-12-10T02:30:16;0.50;99.90
35920;DHT22;36160;53.370;-6.196;2022-12-10T02:32:44;0.20;99.90
35920;DHT22;36160;53.370;-6.196;2022-12-10T02:35:16;0.20;99.90
35920;DHT22;36160;53.370;-6.196;2022-12-10T02:37:51;0.20;99.90
35920;DHT22;36160;53.370;-6.196;2022-12-10T02:40:22;0.20;99.90
35920;DHT22;36160;53.370;-6.196;2022-12-10T02:42:50;0.40;99.90
35920;DHT22;36160;53.370;-6.196;2022-12-10T02:45:17;0.30;99.90
35920;DHT22;36160;53.370;-6.196;2022-12-10T02:47:43;0.30;99.90
35920;DHT22;36160;53.370;-6.196;2022-12-10T02:50:11;0.40;99.90
35920;DHT22;36160;53.370;-6.196;2022-12-10T02:52:38;0.30;99.90
35920;DHT22;36160;53.370;-6.196;2022-12-10T02:55:04;0.30;99.90
35920;DHT22;36160;53.370;-6.196;2022-12-10T02:58:07;0.40;99.90
35920;DHT22;36160;53.370;-6.196;2022-12-10T03:00:41;0.40;99.90
35920;DHT22;36160;53.370;-6.196;2022-12-10T03:05:48;0.40;99.90
35920;DHT22;36160;53.370;-6.196;2022-12-10T03:11:12;0.20;99.90
35920;DHT22;36160;53.370;-6.196;2022-12-10T03:13:56;0.40;99.90
35920;DHT22;36160;53.370;-6.196;2022-12-10T03:16:24;0.20;99.90
35920;DHT22;36160;53.370;-6.196;2022-12-10T03:18:55;0.20;99.90
35920;DHT22;36160;53.370;-6.196;2022-12-10T03:21:22;0.30;99.90
35920;DHT22;36160;53.370;-6.196;2022-12-10T03:23:50;0.30;99.90
35920;DHT22;36160;53.370;-6.196;2022-12-10T03:26:17;0.40;99.90
35920;DHT22;36160;53.370;-6.196;2022-12-10T03:28:50;0.30;99.90
35920;DHT22;36160;53.370;-6.196;2022-12-10T03:31:18;0.40;99.90
35920;DHT22;36160;53.370;-6.196;2022-12-10T03:33:46;0.10;99.90
35920;DHT22;36160;53.370;-6.196;2022-12-10T03:36:13;0.40;99.90
35920;DHT22;36160;53.370;-6.196;2022-12-10T03:38:40;0.30;99.90
35920;DHT22;36160;53.370;-6.196;2022-12-10T03:41:06;0.20;99.90
35920;DHT22;36160;53.370;-6.196;2022-12-10T03:43:32;0.20;99.90
35920;DHT22;36160;53.370;-6.196;2022-12-10T03:45:58;0.10;99.90
35920;DHT22;36160;53.370;-6.196;2022-12-10T03:48:23;0.10;99.90
35920;DHT22;36160;53.370;-6.196;2022-12-10T03:50:49;0.00;99.90
35920;DHT22;36160;53.370;-6.196;2022-12-10T03:53:15;0.20;99.90
35920;DHT22;36160;53.370;-6.196;2022-12-10T03:55:40;0.10;99.90
35920;DHT22;36160;53.370;-6.196;2022-12-10T03:58:06;0.00;99.90
35920;DHT22;36160;53.370;-6.196;2022-12-10T04:00:32;0.00;99.90
35920;DHT22;36160;53.370;-6.196;2022-12-10T04:02:57;0.20;99.90
35920;DHT22;36160;53.370;-6.196;2022-12-10T04:05:23;0.20;99.90
35920;DHT22;36160;53.370;-6.196;2022-12-10T04:07:49;0.10;99.90
35920;DHT22;36160;53.370;-6.196;2022-12-10T04:10:14;0.20;99.90
35920;DHT22;36160;53.370;-6.196;2022-12-10T04:12:40;0.00;99.90
35920;DHT22;36160;53.370;-6.196;2022-12-10T04:15:07;0.10;99.90
35920;DHT22;36160;53.370;-6.196;2022-12-10T04:17:51;0.10;99.90
35920;DHT22;36160;53.370;-6.196;2022-12-10T04:20:18;0.30;99.90
35920;DHT22;36160;53.370;-6.196;2022-12-10T04:23:02;0.20;99.90
35920;DHT22;36160;53.370;-6.196;2022-12-10T04:25:46;0.20;99.90
35920;DHT22;36160;53.370;-6.196;2022-12-10T04:28:30;0.40;99.90
35920;DHT22;36160;53.370;-6.196;2022-12-10T04:30:56;0.20;99.90
35920;DHT22;36160;53.370;-6.196;2022-12-10T04:33:21;0.50;99.90
35920;DHT22;36160;53.370;-6.196;2022-12-10T04:35:47;0.30;99.90
35920;DHT22;36160;53.370;-6.196;2022-12-10T04:38:13;0.50;99.90
35920;DHT22;36160;53.370;-6.196;2022-12-10T04:40:38;0.40;99.90
35920;DHT22;36160;53.370;-6.196;2022-12-10T04:43:04;0.20;99.90
35920;DHT22;36160;53.370;-6.196;2022-12-10T04:45:29;0.40;99.90
35920;DHT22;36160;53.370;-6.196;2022-12-10T04:47:55;0.30;99.90
35920;DHT22;36160;53.370;-6.196;2022-12-10T04:50:21;0.30;99.90
35920;DHT22;36160;53.370;-6.196;2022-12-10T04:52:46;0.50;99.90
35920;DHT22;36160;53.370;-6.196;2022-12-10T04:55:12;0.50;99.90
35920;DHT22;36160;53.370;-6.196;2022-12-10T04:57:38;0.30;99.90
35920;DHT22;36160;53.370;-6.196;2022-12-10T05:00:03;0.40;99.90
35920;DHT22;36160;53.370;-6.196;2022-12-10T05:02:29;0.40;99.90
35920;DHT22;36160;53.370;-6.196;2022-12-10T05:04:55;0.40;99.90
35920;DHT22;36160;53.370;-6.196;2022-12-10T05:07:20;0.20;99.90
35920;DHT22;36160;53.370;-6.196;2022-12-10T05:09:46;0.40;99.90
35920;DHT22;36160;53.370;-6.196;2022-12-10T05:12:12;0.30;99.90
35920;DHT22;36160;53.370;-6.196;2022-12-10T05:14:39;0.30;99.90
35920;DHT22;36160;53.370;-6.196;2022-12-10T05:17:04;0.10;99.90
35920;DHT22;36160;53.370;-6.196;2022-12-10T05:19:30;0.20;99.90
35920;DHT22;36160;53.370;-6.196;2022-12-10T05:21:55;0.20;99.90
35920;DHT22;36160;53.370;-6.196;2022-12-10T05:24:40;0.10;99.90
35920;DHT22;36160;53.370;-6.196;2022-12-10T05:27:05;0.20;99.90
35920;DHT22;36160;53.370;-6.196;2022-12-10T05:29:32;0.10;99.90
35920;DHT22;36160;53.370;-6.196;2022-12-10T05:31:58;0.00;99.90
35920;DHT22;36160;53.370;-6.196;2022-12-10T05:34:23;0.00;99.90
35920;DHT22;36160;53.370;-6.196;2022-12-10T05:36:49;0.00;99.90
35920;DHT22;36160;53.370;-6.196;2022-12-10T05:39:15;-0.10;99.90
35920;DHT22;36160;53.370;-6.196;2022-12-10T05:41:41;0.20;99.90
35920;DHT22;36160;53.370;-6.196;2022-12-10T05:44:09;0.20;99.90
35920;DHT22;36160;53.370;-6.196;2022-12-10T05:46:35;0.00;99.90
35920;DHT22;36160;53.370;-6.196;2022-12-10T05:49:03;0.10;99.90
35920;DHT22;36160;53.370;-6.196;2022-12-10T05:51:31;0.20;99.90
35920;DHT22;36160;53.370;-6.196;2022-12-10T05:53:59;0.40;99.90
35920;DHT22;36160;53.370;-6.196;2022-12-10T05:56:26;0.40;99.90
35920;DHT22;36160;53.370;-6.196;2022-12-10T05:58:54;0.40;99.90
35920;DHT22;36160;53.370;-6.196;2022-12-10T06:01:25;0.20;99.90
35920;DHT22;36160;53.370;-6.196;2022-12-10T06:03:51;0.30;99.90
35920;DHT22;36160;53.370;-6.196;2022-12-10T06:06:28;0.30;99.90
35920;DHT22;36160;53.370;-6.196;2022-12-10T06:08:55;0.20;99.90
35920;DHT22;36160;53.370;-6.196;2022-12-10T06:11:21;0.50;99.90
35920;DHT22;36160;53.370;-6.196;2022-12-10T06:13:48;0.20;99.90
35920;DHT22;36160;53.370;-6.196;2022-12-10T06:16:14;0.20;99.90
35920;DHT22;36160;53.370;-6.196;2022-12-10T06:18:41;0.30;99.90
35920;DHT22;36160;53.370;-6.196;2022-12-10T06:21:09;0.20;99.90
35920;DHT22;36160;53.370;-6.196;2022-12-10T06:23:36;0.50;99.90
35920;DHT22;36160;53.370;-6.196;2022-12-10T06:26:11;0.30;99.90
35920;DHT22;36160;53.370;-6.196;2022-12-10T06:28:37;0.40;99.90
35920;DHT22;36160;53.370;-6.196;2022-12-10T06:31:03;0.50;99.90
35920;DHT22;36160;53.370;-6.196;2022-12-10T06:33:29;0.40;99.90
35920;DHT22;36160;53.370;-6.196;2022-12-10T06:35:55;0.50;99.90
35920;DHT22;36160;53.370;-6.196;2022-12-10T06:38:21;0.40;99.90
35920;DHT22;36160;53.370;-6.196;2022-12-10T06:40:46;0.40;99.90
35920;DHT22;36160;53.370;-6.196;2022-12-10T06:43:12;0.50;99.90
35920;DHT22;36160;53.370;-6.196;2022-12-10T06:45:39;0.50;99.90
35920;DHT22;36160;53.370;-6.196;2022-12-10T06:48:06;0.30;99.90
35920;DHT22;36160;53.370;-6.196;2022-12-10T06:50:31;0.30;99.90
35920;DHT22;36160;53.370;-6.196;2022-12-10T06:52:57;0.30;99.90
35920;DHT22;36160;53.370;-6.196;2022-12-10T06:55:23;0.30;99.90
35920;DHT22;36160;53.370;-6.196;2022-12-10T06:57:52;0.40;99.90
35920;DHT22;36160;53.370;-6.196;2022-12-10T07:00:19;0.50;99.90
35920;DHT22;36160;53.370;-6.196;2022-12-10T07:02:45;0.40;99.90
35920;DHT22;36160;53.370;-6.196;2022-12-10T07:05:11;0.50;99.90
35920;DHT22;36160;53.370;-6.196;2022-12-10T07:07:37;0.40;99.90
35920;DHT22;36160;53.370;-6.196;2022-12-10T07:10:03;0.60;99.90
35920;DHT22;36160;53.370;-6.196;2022-12-10T07:12:29;0.60;99.90
35920;DHT22;36160;53.370;-6.196;2022-12-10T07:14:55;0.60;99.90
35920;DHT22;36160;53.370;-6.196;2022-12-10T07:17:21;0.70;99.90
35920;DHT22;36160;53.370;-6.196;2022-12-10T07:19:46;0.40;99.90
35920;DHT22;36160;53.370;-6.196;2022-12-10T07:22:12;0.60;99.90
35920;DHT22;36160;53.370;-6.196;2022-12-10T07:24:38;0.50;99.90
35920;DHT22;36160;53.370;-6.196;2022-12-10T07:27:07;0.60;99.90
35920;DHT22;36160;53.370;-6.196;2022-12-10T07:29:33;0.50;99.90
35920;DHT22;36160;53.370;-6.196;2022-12-10T07:31:59;0.70;99.90
35920;DHT22;36160;53.370;-6.196;2022-12-10T07:34:25;0.50;99.90
35920;DHT22;36160;53.370;-6.196;2022-12-10T07:36:51;0.50;99.90
35920;DHT22;36160;53.370;-6.196;2022-12-10T07:39:17;0.60;99.90
35920;DHT22;36160;53.370;-6.196;2022-12-10T07:41:52;0.60;99.90
35920;DHT22;36160;53.370;-6.196;2022-12-10T07:44:19;0.70;99.90
35920;DHT22;36160;53.370;-6.196;2022-12-10T07:46:46;0.60;99.90
35920;DHT22;36160;53.370;-6.196;2022-12-10T07:49:12;0.70;99.90
35920;DHT22;36160;53.370;-6.196;2022-12-10T07:51:38;0.70;99.90
35920;DHT22;36160;53.370;-6.196;2022-12-10T07:54:04;0.60;99.90
35920;DHT22;36160;53.370;-6.196;2022-12-10T07:56:29;0.70;99.90
35920;DHT22;36160;53.370;-6.196;2022-12-10T07:58:55;0.50;99.90
35920;DHT22;36160;53.370;-6.196;2022-12-10T08:01:23;0.50;99.90
35920;DHT22;36160;53.370;-6.196;2022-12-10T08:03:50;0.50;99.90
35920;DHT22;36160;53.370;-6.196;2022-12-10T08:06:17;0.60;99.90
35920;DHT22;36160;53.370;-6.196;2022-12-10T08:08:44;0.50;99.90
35920;DHT22;36160;53.370;-6.196;2022-12-10T08:11:12;0.60;99.90
35920;DHT22;36160;53.370;-6.196;2022-12-10T08:13:38;0.60;99.90
35920;DHT22;36160;53.370;-6.196;2022-12-10T08:16:11;0.60;99.90
35920;DHT22;36160;53.370;-6.196;2022-12-10T08:18:38;0.70;99.90
35920;DHT22;36160;53.370;-6.196;2022-12-10T08:21:11;0.70;99.90
35920;DHT22;36160;53.370;-6.196;2022-12-10T08:23:37;0.50;99.90
35920;DHT22;36160;53.370;-6.196;2022-12-10T08:26:07;0.50;99.90
35920;DHT22;36160;53.370;-6.196;2022-12-10T08:28:34;0.40;99.90
35920;DHT22;36160;53.370;-6.196;2022-12-10T08:31:00;0.60;99.90
35920;DHT22;36160;53.370;-6.196;2022-12-10T08:33:25;0.70;99.90
35920;DHT22;36160;53.370;-6.196;2022-12-10T08:35:51;0.50;99.90
35920;DHT22;36160;53.370;-6.196;2022-12-10T08:38:17;0.40;99.90
35920;DHT22;36160;53.370;-6.196;2022-12-10T08:40:43;0.50;99.90
35920;DHT22;36160;53.370;-6.196;2022-12-10T08:43:08;0.70;99.90
35920;DHT22;36160;53.370;-6.196;2022-12-10T08:45:34;0.50;99.90
35920;DHT22;36160;53.370;-6.196;2022-12-10T08:48:03;0.50;99.90
35920;DHT22;36160;53.370;-6.196;2022-12-10T08:50:29;0.70;99.90
35920;DHT22;36160;53.370;-6.196;2022-12-10T08:52:54;0.70;99.90
35920;DHT22;36160;53.370;-6.196;2022-12-10T08:55:20;0.50;99.90
35920;DHT22;36160;53.370;-6.196;2022-12-10T08:57:46;0.60;99.90
35920;DHT22;36160;53.370;-6.196;2022-12-10T09:00:12;0.60;99.90
35920;DHT22;36160;53.370;-6.196;2022-12-10T09:02:39;0.70;99.90
35920;DHT22;36160;53.370;-6.196;2022-12-10T09:05:05;0.80;99.90
35920;DHT22;36160;53.370;-6.196;2022-12-10T09:07:31;0.80;99.90
35920;DHT22;36160;53.370;-6.196;2022-12-10T09:09:56;0.70;99.90
35920;DHT22;36160;53.370;-6.196;2022-12-10T09:12:22;0.80;99.90
35920;DHT22;36160;53.370;-6.196;2022-12-10T09:14:48;0.80;99.90
35920;DHT22;36160;53.370;-6.196;2022-12-10T09:17:14;0.70;99.90
35920;DHT22;36160;53.370;-6.196;2022-12-10T09:19:39;0.80;99.90
35920;DHT22;36160;53.370;-6.196;2022-12-10T09:22:05;0.90;99.90
35920;DHT22;36160;53.370;-6.196;2022-12-10T09:24:31;1.00;99.90
35920;DHT22;36160;53.370;-6.196;2022-12-10T09:26:57;0.90;99.90
35920;DHT22;36160;53.370;-6.196;2022-12-10T09:29:22;1.00;99.90
35920;DHT22;36160;53.370;-6.196;2022-12-10T09:31:52;1.00;99.90
35920;DHT22;36160;53.370;-6.196;2022-12-10T09:34:18;1.00;99.90
35920;DHT22;36160;53.370;-6.196;2022-12-10T09:36:44;1.00;99.90
35920;DHT22;36160;53.370;-6.196;2022-12-10T09:39:09;0.90;99.90
35920;DHT22;36160;53.370;-6.196;2022-12-10T09:44:36;1.10;99.90
35920;DHT22;36160;53.370;-6.196;2022-12-10T09:47:06;0.90;99.90
35920;DHT22;36160;53.370;-6.196;2022-12-10T09:52:12;1.10;99.90
35920;DHT22;36160;53.370;-6.196;2022-12-10T09:57:51;0.90;99.90
35920;DHT22;36160;53.370;-6.196;2022-12-10T10:00:33;1.20;99.90
35920;DHT22;36160;53.370;-6.196;2022-12-10T10:02:59;1.10;99.90
35920;DHT22;36160;53.370;-6.196;2022-12-10T10:05:31;1.20;99.90
35920;DHT22;36160;53.370;-6.196;2022-12-10T10:08:02;1.10;99.90
35920;DHT22;36160;53.370;-6.196;2022-12-10T10:10:32;1.10;99.90
35920;DHT22;36160;53.370;-6.196;2022-12-10T10:15:35;1.20;99.90
35920;DHT22;36160;53.370;-6.196;2022-12-10T10:21:00;1.20;99.90
35920;DHT22;36160;53.370;-6.196;2022-12-10T10:23:26;1.30;99.90
35920;DHT22;36160;53.370;-6.196;2022-12-10T10:25:52;1.40;99.90
35920;DHT22;36160;53.370;-6.196;2022-12-10T10:28:22;1.30;99.90
35920;DHT22;36160;53.370;-6.196;2022-12-10T10:30:50;1.40;99.90
35920;DHT22;36160;53.370;-6.196;2022-12-10T10:33:17;1.30;99.90
35920;DHT22;36160;53.370;-6.196;2022-12-10T10:35:49;1.40;99.90
35920;DHT22;36160;53.370;-6.196;2022-12-10T10:38:28;1.40;99.90
35920;DHT22;36160;53.370;-6.196;2022-12-10T10:40:56;1.50;99.90
35920;DHT22;36160;53.370;-6.196;2022-12-10T10:43:32;1.40;99.90
35920;DHT22;36160;53.370;-6.196;2022-12-10T10:46:03;1.30;99.90
35920;DHT22;36160;53.370;-6.196;2022-12-10T10:48:30;1.40;99.90
35920;DHT22;36160;53.370;-6.196;2022-12-10T10:53:45;1.40;99.90
35920;DHT22;36160;53.370;-6.196;2022-12-10T10:58:47;1.30;99.90
35920;DHT22;36160;53.370;-6.196;2022-12-10T11:01:13;1.50;99.90
35920;DHT22;36160;53.370;-6.196;2022-12-10T11:03:46;1.60;99.90
35920;DHT22;36160;53.370;-6.196;2022-12-10T11:06:13;1.40;99.90
35920;DHT22;36160;53.370;-6.196;2022-12-10T11:08:40;1.40;99.90
35920;DHT22;36160;53.370;-6.196;2022-12-10T11:11:32;1.40;99.90
35920;DHT22;36160;53.370;-6.196;2022-12-10T11:14:29;1.60;99.90
35920;DHT22;36160;53.370;-6.196;2022-12-10T11:19:29;1.70;99.90
35920;DHT22;36160;53.370;-6.196;2022-12-10T11:21:55;1.70;99.90
35920;DHT22;36160;53.370;-6.196;2022-12-10T11:24:40;1.90;99.90
35920;DHT22;36160;53.370;-6.196;2022-12-10T11:32:54;1.90;99.90
35920;DHT22;36160;53.370;-6.196;2022-12-10T11:38:20;2.10;99.90
35920;DHT22;36160;53.370;-6.196;2022-12-10T11:43:42;2.00;99.90
35920;DHT22;36160;53.370;-6.196;2022-12-10T11:46:28;2.10;99.90
35920;DHT22;36160;53.370;-6.196;2022-12-10T11:49:27;2.20;99.90
35920;DHT22;36160;53.370;-6.196;2022-12-10T12:00:16;2.10;99.90
35920;DHT22;36160;53.370;-6.196;2022-12-10T12:13:20;2.30;99.90
35920;DHT22;36160;53.370;-6.196;2022-12-10T12:15:54;2.10;99.90
35920;DHT22;36160;53.370;-6.196;2022-12-10T12:18:23;2.10;99.90
35920;DHT22;36160;53.370;-6.196;2022-12-10T12:20:57;2.10;99.90
35920;DHT22;36160;53.370;-6.196;2022-12-10T12:26:20;2.30;99.90
35920;DHT22;36160;53.370;-6.196;2022-12-10T12:31:38;2.30;99.90
35920;DHT22;36160;53.370;-6.196;2022-12-10T12:36:39;2.10;99.90
35920;DHT22;36160;53.370;-6.196;2022-12-10T12:45:01;2.30;99.90
35920;DHT22;36160;53.370;-6.196;2022-12-10T12:50:29;2.20;99.90
35920;DHT22;36160;53.370;-6.196;2022-12-10T12:52:59;2.10;99.90
35920;DHT22;36160;53.370;-6.196;2022-12-10T12:55:36;2.00;99.90
35920;DHT22;36160;53.370;-6.196;2022-12-10T12:58:22;2.10;99.90
35920;DHT22;36160;53.370;-6.196;2022-12-10T13:00:54;2.00;99.90
35920;DHT22;36160;53.370;-6.196;2022-12-10T13:05:52;2.10;99.90
35920;DHT22;36160;53.370;-6.196;2022-12-10T13:13:24;2.20;99.90
35920;DHT22;36160;53.370;-6.196;2022-12-10T13:15:50;2.20;99.90
35920;DHT22;36160;53.370;-6.196;2022-12-10T13:20:50;2.20;99.90
35920;DHT22;36160;53.370;-6.196;2022-12-10T13:28:30;1.90;99.90
35920;DHT22;36160;53.370;-6.196;2022-12-10T13:36:34;1.90;99.90
35920;DHT22;36160;53.370;-6.196;2022-12-10T13:41:32;1.90;99.90
35920;DHT22;36160;53.370;-6.196;2022-12-10T13:44:45;1.80;99.90
35920;DHT22;36160;53.370;-6.196;2022-12-10T13:50:06;1.90;99.90
35920;DHT22;36160;53.370;-6.196;2022-12-10T13:56:04;1.90;99.90
35920;DHT22;36160;53.370;-6.196;2022-12-10T14:07:18;1.70;99.90
35920;DHT22;36160;53.370;-6.196;2022-12-10T14:09:56;1.60;99.90
35920;DHT22;36160;53.370;-6.196;2022-12-10T14:12:31;1.60;99.90
35920;DHT22;36160;53.370;-6.196;2022-12-10T14:15:01;1.60;99.90
35920;DHT22;36160;53.370;-6.196;2022-12-10T14:17:37;1.70;99.90
35920;DHT22;36160;53.370;-6.196;2022-12-10T14:20:06;1.50;99.90
35920;DHT22;36160;53.370;-6.196;2022-12-10T14:22:39;1.70;99.90
35920;DHT22;36160;53.370;-6.196;2022-12-10T14:25:14;1.50;99.90
35920;DHT22;36160;53.370;-6.196;2022-12-10T14:27:40;1.70;99.90
35920;DHT22;36160;53.370;-6.196;2022-12-10T14:30:16;1.50;99.90
35920;DHT22;36160;53.370;-6.196;2022-12-10T14:32:44;1.50;99.90
35920;DHT22;36160;53.370;-6.196;2022-12-10T14:35:16;1.50;99.90
35920;DHT22;36160;53.370;-6.196;2022-12-10T14:37:46;1.40;99.90
35920;DHT22;36160;53.370;-6.196;2022-12-10T14:40:32;1.60;99.90
35920;DHT22;36160;53.370;-6.196;2022-12-10T14:43:11;1.40;99.90
35920;DHT22;36160;53.370;-6.196;2022-12-10T14:45:55;1.40;99.90
35920;DHT22;36160;53.370;-6.196;2022-12-10T14:48:22;1.60;99.90
35920;DHT22;36160;53.370;-6.196;2022-12-10T14:50:51;1.50;99.90
35920;DHT22;36160;53.370;-6.196;2022-12-10T14:53:23;1.30;99.90
35920;DHT22;36160;53.370;-6.196;2022-12-10T14:55:53;1.40;99.90
35920;DHT22;36160;53.370;-6.196;2022-12-10T14:58:39;1.30;99.90
35920;DHT22;36160;53.370;-6.196;2022-12-10T15:01:05;1.30;99.90
35920;DHT22;36160;53.370;-6.196;2022-12-10T15:03:41;1.30;99.90
35920;DHT22;36160;53.370;-6.196;2022-12-10T15:06:12;1.30;99.90
35920;DHT22;36160;53.370;-6.196;2022-12-10T15:08:41;1.50;99.90
35920;DHT22;36160;53.370;-6.196;2022-12-10T15:11:18;1.40;99.90
35920;DHT22;36160;53.370;-6.196;2022-12-10T15:13:48;1.30;99.90
35920;DHT22;36160;53.370;-6.196;2022-12-10T15:16:41;1.40;99.90
35920;DHT22;36160;53.370;-6.196;2022-12-10T15:22:20;1.30;99.90
35920;DHT22;36160;53.370;-6.196;2022-12-10T15:24:48;1.40;99.90
35920;DHT22;36160;53.370;-6.196;2022-12-10T15:27:22;1.30;99.90
35920;DHT22;36160;53.370;-6.196;2022-12-10T15:29:48;1.40;99.90
35920;DHT22;36160;53.370;-6.196;2022-12-10T15:32:21;1.30;99.90
35920;DHT22;36160;53.370;-6.196;2022-12-10T15:34:54;1.30;99.90
35920;DHT22;36160;53.370;-6.196;2022-12-10T15:37:33;1.30;99.90
35920;DHT22;36160;53.370;-6.196;2022-12-10T15:40:05;1.20;99.90
35920;DHT22;36160;53.370;-6.196;2022-12-10T15:42:57;1.20;99.90
35920;DHT22;36160;53.370;-6.196;2022-12-10T15:45:41;1.10;99.90
35920;DHT22;36160;53.370;-6.196;2022-12-10T15:48:10;1.10;99.90
35920;DHT22;36160;53.370;-6.196;2022-12-10T15:50:43;1.20;99.90
35920;DHT22;36160;53.370;-6.196;2022-12-10T15:53:16;1.10;99.90
35920;DHT22;36160;53.370;-6.196;2022-12-10T15:55:44;1.00;99.90
35920;DHT22;36160;53.370;-6.196;2022-12-10T15:58:11;1.10;99.90
35920;DHT22;36160;53.370;-6.196;2022-12-10T16:00:40;1.00;99.90
35920;DHT22;36160;53.370;-6.196;2022-12-10T16:03:10;1.20;99.90
35920;DHT22;36160;53.370;-6.196;2022-12-10T16:05:38;1.10;99.90
35920;DHT22;36160;53.370;-6.196;2022-12-10T16:08:21;0.90;99.90
35920;DHT22;36160;53.370;-6.196;2022-12-10T16:10:49;1.00;99.90
35920;DHT22;36160;53.370;-6.196;2022-12-10T16:13:20;0.90;99.90
35920;DHT22;36160;53.370;-6.196;2022-12-10T16:15:54;1.00;99.90
35920;DHT22;36160;53.370;-6.196;2022-12-10T16:18:23;1.00;99.90
35920;DHT22;36160;53.370;-6.196;2022-12-10T16:20:49;1.00;99.90
35920;DHT22;36160;53.370;-6.196;2022-12-10T16:23:15;0.80;99.90
35920;DHT22;36160;53.370;-6.196;2022-12-10T16:25:42;0.80;99.90
35920;DHT22;36160;53.370;-6.196;2022-12-10T16:28:14;0.70;99.90
35920;DHT22;36160;53.370;-6.196;2022-12-10T16:30:44;0.80;99.90
35920;DHT22;36160;53.370;-6.196;2022-12-10T16:33:11;0.90;99.90
35920;DHT22;36160;53.370;-6.196;2022-12-10T16:35:37;0.80;99.90
35920;DHT22;36160;53.370;-6.196;2022-12-10T16:38:03;0.80;99.90
35920;DHT22;36160;53.370;-6.196;2022-12-10T16:40:29;0.90;99.90
35920;DHT22;36160;53.370;-6.196;2022-12-10T16:42:55;0.80;99.90
35920;DHT22;36160;53.370;-6.196;2022-12-10T16:45:25;0.70;99.90
35920;DHT22;36160;53.370;-6.196;2022-12-10T16:47:52;0.70;99.90
35920;DHT22;36160;53.370;-6.196;2022-12-10T16:50:18;0.90;99.90
35920;DHT22;36160;53.370;-6.196;2022-12-10T16:52:45;0.90;99.90
35920;DHT22;36160;53.370;-6.196;2022-12-10T16:55:13;0.80;99.90
35920;DHT22;36160;53.370;-6.196;2022-12-10T16:57:39;0.80;99.90
35920;DHT22;36160;53.370;-6.196;2022-12-10T17:00:10;1.00;99.90
35920;DHT22;36160;53.370;-6.196;2022-12-10T17:02:36;1.00;99.90
35920;DHT22;36160;53.370;-6.196;2022-12-10T17:05:02;1.00;99.90
35920;DHT22;36160;53.370;-6.196;2022-12-10T17:07:28;1.00;99.90
35920;DHT22;36160;53.370;-6.196;2022-12-10T17:09:53;1.10;99.90
35920;DHT22;36160;53.370;-6.196;2022-12-10T17:12:19;1.10;99.90
35920;DHT22;36160;53.370;-6.196;2022-12-10T17:14:45;1.20;99.90
35920;DHT22;36160;53.370;-6.196;2022-12-10T17:17:13;1.10;99.90
35920;DHT22;36160;53.370;-6.196;2022-12-10T17:19:40;1.00;99.90
35920;DHT22;36160;53.370;-6.196;2022-12-10T17:22:07;0.90;99.90
35920;DHT22;36160;53.370;-6.196;2022-12-10T17:24:33;0.90;99.90
35920;DHT22;36160;53.370;-6.196;2022-12-10T17:27:25;0.80;99.90
35920;DHT22;36160;53.370;-6.196;2022-12-10T17:29:51;0.90;99.90
35920;DHT22;36160;53.370;-6.196;2022-12-10T17:32:21;0.80;99.90
35920;DHT22;36160;53.370;-6.196;2022-12-10T17:34:48;1.00;99.90
35920;DHT22;36160;53.370;-6.196;2022-12-10T17:37:16;0.70;99.90
35920;DHT22;36160;53.370;-6.196;2022-12-10T17:39:43;0.70;99.90
35920;DHT22;36160;53.370;-6.196;2022-12-10T17:42:09;0.90;99.90
35920;DHT22;36160;53.370;-6.196;2022-12-10T17:44:36;1.00;99.90
35920;DHT22;36160;53.370;-6.196;2022-12-10T17:47:18;0.90;99.90
35920;DHT22;36160;53.370;-6.196;2022-12-10T17:49:44;0.80;99.90
35920;DHT22;36160;53.370;-6.196;2022-12-10T17:52:10;1.00;99.90
35920;DHT22;36160;53.370;-6.196;2022-12-10T17:54:35;0.80;99.90